createdAt,value
2022-11-16T00:00:22.031Z,97291.22
2022-11-16T00:02:28.078Z,97297.53
2022-11-16T00:04:35.101Z,97291.75
2022-11-16T00:06:41.229Z,97290.22
2022-11-16T00:09:14.111Z,97283.09
2022-11-16T00:11:23.297Z,97288.56
2022-11-16T00:13:29.126Z,97279.88
2022-11-16T00:15:34.880Z,97275.53
2022-11-16T00:17:41.547Z,97274.44
2022-11-16T00:19:47.404Z,97280.94
2022-11-16T00:21:53.170Z,97272.91
2022-11-16T00:24:00.780Z,97268.91
2022-11-16T00:26:09.270Z,97266.91
2022-11-16T00:28:18.117Z,97264.94
2022-11-16T00:30:25.922Z,97272.53
2022-11-16T00:32:32.314Z,97267.03
2022-11-16T00:34:38.629Z,97259.47
2022-11-16T00:36:45.823Z,97267.59
2022-11-16T00:38:56.161Z,97255.81
2022-11-16T00:41:01.897Z,97271.44
2022-11-16T00:43:08.493Z,97274.78
2022-11-16T00:45:17.329Z,97274.06
2022-11-16T00:47:23.109Z,97276.25
2022-11-16T00:49:29.620Z,97280.84
2022-11-16T00:51:36.006Z,97269.41
2022-11-16T00:53:43.000Z,97276.53
2022-11-16T00:55:51.763Z,97276.34
2022-11-16T00:57:59.238Z,97269.78
2022-11-16T01:00:05.359Z,97269.66
2022-11-16T01:02:16.214Z,97272.00
2022-11-16T01:04:22.057Z,97254.72
2022-11-16T01:06:27.934Z,97259.44
2022-11-16T01:08:35.859Z,97254.56
2022-11-16T01:10:44.335Z,97257.09
2022-11-16T01:12:50.228Z,97256.59
2022-11-16T01:14:57.144Z,97248.63
2022-11-16T01:17:04.949Z,97233.69
2022-11-16T01:19:13.784Z,97228.66
2022-11-16T01:21:21.262Z,97225.19
2022-11-16T01:23:27.065Z,97231.78
2022-11-16T01:25:32.916Z,97226.66
2022-11-16T01:27:40.128Z,97227.22
2022-11-16T01:29:50.095Z,97223.59
2022-11-16T01:31:56.253Z,97224.59
2022-11-16T01:34:03.325Z,97223.97
2022-11-16T01:36:17.430Z,97216.69
2022-11-16T01:38:28.430Z,97215.50
2022-11-16T01:40:41.134Z,97212.72
2022-11-16T01:42:47.396Z,97209.53
2022-11-16T01:45:26.347Z,97201.78
2022-11-16T01:47:37.104Z,97198.63
2022-11-16T01:49:51.614Z,97195.91
2022-11-16T01:52:10.109Z,97199.41
2022-11-16T01:54:18.279Z,97192.63
2022-11-16T01:56:51.867Z,97195.56
2022-11-16T01:59:06.398Z,97198.88
2022-11-16T02:01:13.119Z,97200.56
2022-11-16T02:03:25.555Z,97190.44
2022-11-16T02:05:53.231Z,97183.88
2022-11-16T02:08:40.686Z,97180.16
2022-11-16T02:11:15.285Z,97181.00
2022-11-16T02:13:45.020Z,97181.47
2022-11-16T02:16:03.458Z,97176.75
2022-11-16T02:18:29.964Z,97170.53
2022-11-16T02:21:26.657Z,97175.63
2022-11-16T02:24:23.522Z,97167.22
2022-11-16T02:27:04.917Z,97162.00
2022-11-16T02:29:31.806Z,97157.38
2022-11-16T02:31:47.493Z,97160.25
2022-11-16T02:33:59.009Z,97154.59
2022-11-16T02:36:15.424Z,97141.66
2022-11-16T02:38:31.179Z,97153.81
2022-11-16T02:40:47.954Z,97150.16
2022-11-16T02:43:10.700Z,97156.44
2022-11-16T02:45:27.408Z,97151.63
2022-11-16T02:47:38.304Z,97158.28
2022-11-16T02:49:57.504Z,97154.63
2022-11-16T02:52:04.991Z,97157.84
2022-11-16T02:54:17.491Z,97161.09
2022-11-16T02:56:28.461Z,97148.41
2022-11-16T02:58:35.099Z,97149.88
2022-11-16T03:00:54.909Z,97154.09
2022-11-16T03:03:23.703Z,97158.13
2022-11-16T03:05:38.370Z,97158.97
2022-11-16T03:07:53.870Z,97156.34
2022-11-16T03:10:05.475Z,97155.13
2022-11-16T03:12:20.733Z,97155.94
2022-11-16T03:14:37.682Z,97140.56
2022-11-16T03:16:53.821Z,97152.31
